sensor_id;sensor_type;location;lat;lon;timestamp;temperature;humidity
46364;DHT22;32071;49.036;9.344;2022-12-18T00:00:47;-9.50;99.90
46364;DHT22;32071;49.036;9.344;2022-12-18T00:03:16;-9.50;99.90
46364;DHT22;32071;49.036;9.344;2022-12-18T00:05:51;-9.50;99.90
46364;DHT22;32071;49.036;9.344;2022-12-18T00:08:19;-9.50;99.90
46364;DHT22;32071;49.036;9.344;2022-12-18T00:11:04;-9.60;99.90
46364;DHT22;32071;49.036;9.344;2022-12-18T00:13:30;-9.50;99.90
46364;DHT22;32071;49.036;9.344;2022-12-18T00:16:22;-9.60;99.90
46364;DHT22;32071;49.036;9.344;2022-12-18T00:18:49;-9.60;99.90
46364;DHT22;32071;49.036;9.344;2022-12-18T00:21:19;-9.70;99.90
46364;DHT22;32071;49.036;9.344;2022-12-18T00:23:47;-9.70;99.90
46364;DHT22;32071;49.036;9.344;2022-12-18T00:26:24;-9.80;99.90
46364;DHT22;32071;49.036;9.344;2022-12-18T00:29:21;-9.80;99.90
46364;DHT22;32071;49.036;9.344;2022-12-18T00:32:45;-9.80;99.90
46364;DHT22;32071;49.036;9.344;2022-12-18T00:35:11;-9.80;99.90
46364;DHT22;32071;49.036;9.344;2022-12-18T00:37:36;-9.80;99.90
46364;DHT22;32071;49.036;9.344;2022-12-18T00:40:06;-9.80;99.90
46364;DHT22;32071;49.036;9.344;2022-12-18T00:42:37;-9.80;99.90
46364;DHT22;32071;49.036;9.344;2022-12-18T00:45:27;-9.80;99.90
46364;DHT22;32071;49.036;9.344;2022-12-18T00:47:53;-9.80;99.90
46364;DHT22;32071;49.036;9.344;2022-12-18T00:50:19;-9.80;99.90
46364;DHT22;32071;49.036;9.344;2022-12-18T00:52:45;-9.80;99.90
46364;DHT22;32071;49.036;9.344;2022-12-18T00:55:12;-9.80;99.90
46364;DHT22;32071;49.036;9.344;2022-12-18T00:57:50;-9.80;99.90
46364;DHT22;32071;49.036;9.344;2022-12-18T01:00:22;-9.80;99.90
46364;DHT22;32071;49.036;9.344;2022-12-18T01:02:53;-9.80;99.90
46364;DHT22;32071;49.036;9.344;2022-12-18T01:05:23;-9.80;99.90
46364;DHT22;32071;49.036;9.344;2022-12-18T01:07:48;-9.70;99.90
46364;DHT22;32071;49.036;9.344;2022-12-18T01:10:14;-9.80;99.90
46364;DHT22;32071;49.036;9.344;2022-12-18T01:12:40;-9.80;99.90
46364;DHT22;32071;49.036;9.344;2022-12-18T01:15:07;-9.80;99.90
46364;DHT22;32071;49.036;9.344;2022-12-18T01:17:34;-9.80;99.90
46364;DHT22;32071;49.036;9.344;2022-12-18T01:20:01;-9.90;99.90
46364;DHT22;32071;49.036;9.344;2022-12-18T01:22:26;-9.90;99.90
46364;DHT22;32071;49.036;9.344;2022-12-18T01:24:54;-9.90;99.90
46364;DHT22;32071;49.036;9.344;2022-12-18T01:27:22;-9.90;99.90
46364;DHT22;32071;49.036;9.344;2022-12-18T01:29:49;-9.90;99.90
46364;DHT22;32071;49.036;9.344;2022-12-18T01:32:15;-9.90;99.90
46364;DHT22;32071;49.036;9.344;2022-12-18T01:34:40;-9.90;99.90
46364;DHT22;32071;49.036;9.344;2022-12-18T01:37:07;-9.90;99.90
46364;DHT22;32071;49.036;9.344;2022-12-18T01:39:33;-9.90;99.90
46364;DHT22;32071;49.036;9.344;2022-12-18T01:42:00;-9.90;99.90
46364;DHT22;32071;49.036;9.344;2022-12-18T01:47:18;-9.90;99.90
46364;DHT22;32071;49.036;9.344;2022-12-18T01:49:45;-10.00;99.90
46364;DHT22;32071;49.036;9.344;2022-12-18T01:52:11;-10.00;99.90
46364;DHT22;32071;49.036;9.344;2022-12-18T01:54:36;-9.90;99.90
46364;DHT22;32071;49.036;9.344;2022-12-18T01:57:02;-9.90;99.90
46364;DHT22;32071;49.036;9.344;2022-12-18T01:59:29;-10.00;99.90
46364;DHT22;32071;49.036;9.344;2022-12-18T02:01:56;-9.90;99.90
46364;DHT22;32071;49.036;9.344;2022-12-18T02:04:25;-9.90;99.90
46364;DHT22;32071;49.036;9.344;2022-12-18T02:12:19;-9.80;99.90
46364;DHT22;32071;49.036;9.344;2022-12-18T02:15:07;-9.80;99.90
46364;DHT22;32071;49.036;9.344;2022-12-18T02:17:39;-9.80;99.90
46364;DHT22;32071;49.036;9.344;2022-12-18T02:25:44;-9.80;99.90
46364;DHT22;32071;49.036;9.344;2022-12-18T02:28:13;-9.80;99.90
46364;DHT22;32071;49.036;9.344;2022-12-18T02:30:42;-9.90;99.90
46364;DHT22;32071;49.036;9.344;2022-12-18T02:33:09;-10.00;99.90
46364;DHT22;32071;49.036;9.344;2022-12-18T02:35:37;-10.00;99.90
46364;DHT22;32071;49.036;9.344;2022-12-18T02:38:04;-10.00;99.90
46364;DHT22;32071;49.036;9.344;2022-12-18T02:40:30;-10.00;99.90
46364;DHT22;32071;49.036;9.344;2022-12-18T02:43:06;-10.00;99.90
46364;DHT22;32071;49.036;9.344;2022-12-18T02:45:32;-10.00;99.90
46364;DHT22;32071;49.036;9.344;2022-12-18T02:47:57;-10.10;99.90
46364;DHT22;32071;49.036;9.344;2022-12-18T02:50:35;-10.10;99.90
46364;DHT22;32071;49.036;9.344;2022-12-18T03:01:23;-10.10;99.90
46364;DHT22;32071;49.036;9.344;2022-12-18T03:03:58;-10.10;99.90
46364;DHT22;32071;49.036;9.344;2022-12-18T03:06:31;-10.10;99.90
46364;DHT22;32071;49.036;9.344;2022-12-18T03:09:06;-10.10;99.90
46364;DHT22;32071;49.036;9.344;2022-12-18T03:11:34;-10.10;99.90
46364;DHT22;32071;49.036;9.344;2022-12-18T03:14:23;-10.10;99.90
46364;DHT22;32071;49.036;9.344;2022-12-18T03:16:52;-10.10;99.90
46364;DHT22;32071;49.036;9.344;2022-12-18T03:19:22;-10.10;99.90
46364;DHT22;32071;49.036;9.344;2022-12-18T03:21:51;-10.10;99.90
46364;DHT22;32071;49.036;9.344;2022-12-18T03:24:20;-10.20;99.90
46364;DHT22;32071;49.036;9.344;2022-12-18T03:26:51;-10.20;99.90
46364;DHT22;32071;49.036;9.344;2022-12-18T03:29:32;-10.30;99.90
46364;DHT22;32071;49.036;9.344;2022-12-18T03:32:09;-10.30;99.90
46364;DHT22;32071;49.036;9.344;2022-12-18T03:34:38;-10.20;99.90
46364;DHT22;32071;49.036;9.344;2022-12-18T03:37:06;-10.20;99.90
46364;DHT22;32071;49.036;9.344;2022-12-18T03:39:33;-10.20;99.90
46364;DHT22;32071;49.036;9.344;2022-12-18T03:42:21;-10.10;99.90
46364;DHT22;32071;49.036;9.344;2022-12-18T03:47:37;-10.10;99.90
46364;DHT22;32071;49.036;9.344;2022-12-18T03:50:22;-10.10;99.90
46364;DHT22;32071;49.036;9.344;2022-12-18T03:53:43;-10.10;99.90
46364;DHT22;32071;49.036;9.344;2022-12-18T03:55:47;-10.20;99.90
46364;DHT22;32071;49.036;9.344;2022-12-18T03:58:17;-10.20;99.90
46364;DHT22;32071;49.036;9.344;2022-12-18T04:00:44;-10.20;99.90
46364;DHT22;32071;49.036;9.344;2022-12-18T04:03:12;-10.20;99.90
46364;DHT22;32071;49.036;9.344;2022-12-18T04:05:40;-10.30;99.90
46364;DHT22;32071;49.036;9.344;2022-12-18T04:08:10;-10.30;99.90
46364;DHT22;32071;49.036;9.344;2022-12-18T04:10:37;-10.30;99.90
46364;DHT22;32071;49.036;9.344;2022-12-18T04:13:03;-10.30;99.90
46364;DHT22;32071;49.036;9.344;2022-12-18T04:15:29;-10.30;99.90
46364;DHT22;32071;49.036;9.344;2022-12-18T04:17:59;-10.30;99.90
46364;DHT22;32071;49.036;9.344;2022-12-18T04:20:25;-10.30;99.90
46364;DHT22;32071;49.036;9.344;2022-12-18T04:22:51;-10.30;99.90
46364;DHT22;32071;49.036;9.344;2022-12-18T04:25:17;-10.40;99.90
46364;DHT22;32071;49.036;9.344;2022-12-18T04:27:42;-10.40;99.90
46364;DHT22;32071;49.036;9.344;2022-12-18T04:30:09;-10.40;99.90
46364;DHT22;32071;49.036;9.344;2022-12-18T04:32:35;-10.50;99.90
46364;DHT22;32071;49.036;9.344;2022-12-18T04:35:01;-10.50;99.90
46364;DHT22;32071;49.036;9.344;2022-12-18T04:37:27;-10.50;99.90
46364;DHT22;32071;49.036;9.344;2022-12-18T04:39:52;-10.50;99.90
46364;DHT22;32071;49.036;9.344;2022-12-18T04:42:18;-10.50;99.90
46364;DHT22;32071;49.036;9.344;2022-12-18T04:44:43;-10.60;99.90
46364;DHT22;32071;49.036;9.344;2022-12-18T04:47:09;-10.70;99.90
46364;DHT22;32071;49.036;9.344;2022-12-18T04:49:35;-10.70;99.90
46364;DHT22;32071;49.036;9.344;2022-12-18T04:52:02;-10.70;99.90
46364;DHT22;32071;49.036;9.344;2022-12-18T04:54:28;-10.70;99.90
46364;DHT22;32071;49.036;9.344;2022-12-18T04:56:54;-10.60;99.90
46364;DHT22;32071;49.036;9.344;2022-12-18T04:59:21;-10.70;99.90
46364;DHT22;32071;49.036;9.344;2022-12-18T05:01:47;-10.70;99.90
46364;DHT22;32071;49.036;9.344;2022-12-18T05:04:13;-10.70;99.90
46364;DHT22;32071;49.036;9.344;2022-12-18T05:06:38;-10.80;99.90
46364;DHT22;32071;49.036;9.344;2022-12-18T05:09:04;-10.70;99.90
46364;DHT22;32071;49.036;9.344;2022-12-18T05:11:29;-10.70;99.90
46364;DHT22;32071;49.036;9.344;2022-12-18T05:13:55;-10.70;99.90
46364;DHT22;32071;49.036;9.344;2022-12-18T05:16:20;-10.60;99.90
46364;DHT22;32071;49.036;9.344;2022-12-18T05:18:46;-10.70;99.90
46364;DHT22;32071;49.036;9.344;2022-12-18T05:21:13;-10.60;99.90
46364;DHT22;32071;49.036;9.344;2022-12-18T05:23:38;-10.60;99.90
46364;DHT22;32071;49.036;9.344;2022-12-18T05:26:06;-10.60;99.90
46364;DHT22;32071;49.036;9.344;2022-12-18T05:28:35;-10.60;99.90
46364;DHT22;32071;49.036;9.344;2022-12-18T05:31:02;-10.60;99.90
46364;DHT22;32071;49.036;9.344;2022-12-18T05:33:32;-10.60;99.90
46364;DHT22;32071;49.036;9.344;2022-12-18T05:36:01;-10.60;99.90
46364;DHT22;32071;49.036;9.344;2022-12-18T05:38:28;-10.60;99.90
46364;DHT22;32071;49.036;9.344;2022-12-18T05:40:54;-10.60;99.90
46364;DHT22;32071;49.036;9.344;2022-12-18T05:43:20;-10.60;99.90
46364;DHT22;32071;49.036;9.344;2022-12-18T05:45:50;-10.60;99.90
46364;DHT22;32071;49.036;9.344;2022-12-18T05:48:16;-10.70;99.90
46364;DHT22;32071;49.036;9.344;2022-12-18T05:50:45;-10.70;99.90
46364;DHT22;32071;49.036;9.344;2022-12-18T05:53:12;-10.70;99.90
46364;DHT22;32071;49.036;9.344;2022-12-18T05:55:39;-10.70;99.90
46364;DHT22;32071;49.036;9.344;2022-12-18T05:58:07;-10.70;99.90
46364;DHT22;32071;49.036;9.344;2022-12-18T06:00:34;-10.80;99.90
46364;DHT22;32071;49.036;9.344;2022-12-18T06:03:00;-10.80;99.90
46364;DHT22;32071;49.036;9.344;2022-12-18T06:05:26;-10.80;99.90
46364;DHT22;32071;49.036;9.344;2022-12-18T06:07:52;-10.70;99.90
46364;DHT22;32071;49.036;9.344;2022-12-18T06:10:17;-10.70;99.90
46364;DHT22;32071;49.036;9.344;2022-12-18T06:12:43;-10.80;99.90
46364;DHT22;32071;49.036;9.344;2022-12-18T06:15:10;-10.90;99.90
46364;DHT22;32071;49.036;9.344;2022-12-18T06:17:36;-10.90;99.90
46364;DHT22;32071;49.036;9.344;2022-12-18T06:20:03;-11.00;99.90
46364;DHT22;32071;49.036;9.344;2022-12-18T06:22:32;-10.90;99.90
46364;DHT22;32071;49.036;9.344;2022-12-18T06:24:58;-10.90;99.90
46364;DHT22;32071;49.036;9.344;2022-12-18T06:27:24;-10.90;99.90
46364;DHT22;32071;49.036;9.344;2022-12-18T06:29:52;-10.80;99.90
46364;DHT22;32071;49.036;9.344;2022-12-18T06:32:17;-10.80;99.90
46364;DHT22;32071;49.036;9.344;2022-12-18T06:34:44;-10.80;99.90
46364;DHT22;32071;49.036;9.344;2022-12-18T06:37:09;-10.70;99.90
46364;DHT22;32071;49.036;9.344;2022-12-18T06:39:35;-10.60;99.90
46364;DHT22;32071;49.036;9.344;2022-12-18T06:42:00;-10.60;99.90
46364;DHT22;32071;49.036;9.344;2022-12-18T06:44:26;-10.50;99.90
46364;DHT22;32071;49.036;9.344;2022-12-18T06:46:55;-10.50;99.90
46364;DHT22;32071;49.036;9.344;2022-12-18T06:49:20;-10.40;99.90
46364;DHT22;32071;49.036;9.344;2022-12-18T06:51:46;-10.40;99.90
46364;DHT22;32071;49.036;9.344;2022-12-18T06:54:12;-10.40;99.90
46364;DHT22;32071;49.036;9.344;2022-12-18T06:56:38;-10.30;99.90
46364;DHT22;32071;49.036;9.344;2022-12-18T06:59:04;-10.30;99.90
46364;DHT22;32071;49.036;9.344;2022-12-18T07:01:29;-10.20;99.90
46364;DHT22;32071;49.036;9.344;2022-12-18T07:03:56;-10.10;99.90
46364;DHT22;32071;49.036;9.344;2022-12-18T07:06:24;-10.10;99.90
46364;DHT22;32071;49.036;9.344;2022-12-18T07:08:51;-10.10;99.90
46364;DHT22;32071;49.036;9.344;2022-12-18T07:11:18;-10.10;99.90
46364;DHT22;32071;49.036;9.344;2022-12-18T07:13:44;-10.00;99.90
46364;DHT22;32071;49.036;9.344;2022-12-18T07:16:16;-9.90;99.90
46364;DHT22;32071;49.036;9.344;2022-12-18T07:18:43;-9.80;99.90
46364;DHT22;32071;49.036;9.344;2022-12-18T07:21:14;-9.70;99.90
46364;DHT22;32071;49.036;9.344;2022-12-18T07:23:39;-9.60;99.90
46364;DHT22;32071;49.036;9.344;2022-12-18T07:26:10;-9.40;99.90
46364;DHT22;32071;49.036;9.344;2022-12-18T07:28:37;-9.40;99.90
46364;DHT22;32071;49.036;9.344;2022-12-18T07:31:12;-9.30;99.90
46364;DHT22;32071;49.036;9.344;2022-12-18T07:33:37;-9.30;99.90
46364;DHT22;32071;49.036;9.344;2022-12-18T07:36:05;-9.20;99.90
46364;DHT22;32071;49.036;9.344;2022-12-18T07:38:32;-9.20;99.90
46364;DHT22;32071;49.036;9.344;2022-12-18T07:41:02;-9.20;99.90
46364;DHT22;32071;49.036;9.344;2022-12-18T07:43:28;-9.10;99.90
46364;DHT22;32071;49.036;9.344;2022-12-18T07:45:55;-9.10;99.90
46364;DHT22;32071;49.036;9.344;2022-12-18T07:48:21;-9.00;99.90
46364;DHT22;32071;49.036;9.344;2022-12-18T07:50:46;-8.90;99.90
46364;DHT22;32071;49.036;9.344;2022-12-18T07:53:12;-8.90;99.90
46364;DHT22;32071;49.036;9.344;2022-12-18T07:55:38;-8.80;99.90
46364;DHT22;32071;49.036;9.344;2022-12-18T07:58:05;-8.80;99.90
46364;DHT22;32071;49.036;9.344;2022-12-18T08:00:31;-8.70;99.90
46364;DHT22;32071;49.036;9.344;2022-12-18T08:02:57;-8.70;99.90
46364;DHT22;32071;49.036;9.344;2022-12-18T08:05:23;-8.70;99.90
46364;DHT22;32071;49.036;9.344;2022-12-18T08:07:50;-8.60;99.90
46364;DHT22;32071;49.036;9.344;2022-12-18T08:10:16;-8.50;99.90
46364;DHT22;32071;49.036;9.344;2022-12-18T08:12:42;-8.40;99.90
46364;DHT22;32071;49.036;9.344;2022-12-18T08:15:08;-8.20;99.90
46364;DHT22;32071;49.036;9.344;2022-12-18T08:17:33;-8.10;99.90
46364;DHT22;32071;49.036;9.344;2022-12-18T08:19:59;-8.00;99.90
46364;DHT22;32071;49.036;9.344;2022-12-18T08:22:25;-7.90;99.90
46364;DHT22;32071;49.036;9.344;2022-12-18T08:24:51;-7.80;99.90
46364;DHT22;32071;49.036;9.344;2022-12-18T08:27:17;-7.70;99.90
46364;DHT22;32071;49.036;9.344;2022-12-18T08:29:42;-7.60;99.90
46364;DHT22;32071;49.036;9.344;2022-12-18T08:32:08;-7.50;99.90
46364;DHT22;32071;49.036;9.344;2022-12-18T08:34:34;-7.40;99.90
46364;DHT22;32071;49.036;9.344;2022-12-18T08:36:59;-7.30;99.90
46364;DHT22;32071;49.036;9.344;2022-12-18T08:39:26;-7.20;99.90
46364;DHT22;32071;49.036;9.344;2022-12-18T08:41:53;-7.10;99.90
46364;DHT22;32071;49.036;9.344;2022-12-18T08:44:37;-7.00;99.90
46364;DHT22;32071;49.036;9.344;2022-12-18T08:47:03;-6.90;99.90
46364;DHT22;32071;49.036;9.344;2022-12-18T08:49:29;-6.80;99.90
46364;DHT22;32071;49.036;9.344;2022-12-18T08:51:56;-6.70;99.90
46364;DHT22;32071;49.036;9.344;2022-12-18T08:54:23;-6.60;99.90
46364;DHT22;32071;49.036;9.344;2022-12-18T08:56:48;-6.60;99.90
46364;DHT22;32071;49.036;9.344;2022-12-18T08:59:15;-6.50;99.90
46364;DHT22;32071;49.036;9.344;2022-12-18T09:01:41;-6.40;99.90
46364;DHT22;32071;49.036;9.344;2022-12-18T09:04:08;-6.30;99.90
46364;DHT22;32071;49.036;9.344;2022-12-18T09:06:34;-6.20;99.90
46364;DHT22;32071;49.036;9.344;2022-12-18T09:09:00;-6.10;99.90
46364;DHT22;32071;49.036;9.344;2022-12-18T09:11:28;-6.10;99.90
46364;DHT22;32071;49.036;9.344;2022-12-18T09:13:54;-6.00;99.90
46364;DHT22;32071;49.036;9.344;2022-12-18T09:16:20;-5.90;99.90
46364;DHT22;32071;49.036;9.344;2022-12-18T09:18:47;-5.80;99.90
46364;DHT22;32071;49.036;9.344;2022-12-18T09:21:18;-5.80;99.90
46364;DHT22;32071;49.036;9.344;2022-12-18T09:23:49;-5.70;99.90
46364;DHT22;32071;49.036;9.344;2022-12-18T09:26:15;-5.60;99.90
46364;DHT22;32071;49.036;9.344;2022-12-18T09:28:42;-5.60;99.90
46364;DHT22;32071;49.036;9.344;2022-12-18T09:31:11;-5.50;99.90
46364;DHT22;32071;49.036;9.344;2022-12-18T09:33:39;-5.40;99.90
46364;DHT22;32071;49.036;9.344;2022-12-18T09:36:08;-5.30;99.90
46364;DHT22;32071;49.036;9.344;2022-12-18T09:38:34;-5.30;99.90
46364;DHT22;32071;49.036;9.344;2022-12-18T09:44:05;-5.10;99.90
46364;DHT22;32071;49.036;9.344;2022-12-18T09:46:45;-5.00;99.90
46364;DHT22;32071;49.036;9.344;2022-12-18T09:49:14;-4.90;99.90
46364;DHT22;32071;49.036;9.344;2022-12-18T09:51:52;-4.80;99.90
46364;DHT22;32071;49.036;9.344;2022-12-18T09:54:35;-4.70;99.90
46364;DHT22;32071;49.036;9.344;2022-12-18T09:57:03;-4.60;99.90
46364;DHT22;32071;49.036;9.344;2022-12-18T09:59:37;-4.50;99.90
46364;DHT22;32071;49.036;9.344;2022-12-18T10:04:41;-4.40;99.90
46364;DHT22;32071;49.036;9.344;2022-12-18T10:07:29;-4.30;99.90
46364;DHT22;32071;49.036;9.344;2022-12-18T10:12:42;-4.10;99.90
46364;DHT22;32071;49.036;9.344;2022-12-18T10:15:33;-4.00;99.90
46364;DHT22;32071;49.036;9.344;2022-12-18T10:18:50;-3.90;99.90
46364;DHT22;32071;49.036;9.344;2022-12-18T10:21:17;-3.70;99.90
46364;DHT22;32071;49.036;9.344;2022-12-18T10:26:48;-3.60;99.90
46364;DHT22;32071;49.036;9.344;2022-12-18T10:29:15;-3.50;99.90
46364;DHT22;32071;49.036;9.344;2022-12-18T10:31:42;-3.40;99.90
46364;DHT22;32071;49.036;9.344;2022-12-18T10:34:14;-3.30;99.90
46364;DHT22;32071;49.036;9.344;2022-12-18T10:36:42;-3.20;99.90
46364;DHT22;32071;49.036;9.344;2022-12-18T10:39:21;-3.10;99.90
46364;DHT22;32071;49.036;9.344;2022-12-18T10:41:48;-3.00;99.90
46364;DHT22;32071;49.036;9.344;2022-12-18T10:46:42;-2.90;99.90
46364;DHT22;32071;49.036;9.344;2022-12-18T10:49:22;-2.80;99.90
46364;DHT22;32071;49.036;9.344;2022-12-18T10:51:48;-2.80;99.90
46364;DHT22;32071;49.036;9.344;2022-12-18T10:54:20;-2.70;99.90
46364;DHT22;32071;49.036;9.344;2022-12-18T10:56:47;-2.60;99.90
46364;DHT22;32071;49.036;9.344;2022-12-18T10:59:15;-2.50;99.90
46364;DHT22;32071;49.036;9.344;2022-12-18T11:01:54;-2.40;99.90
46364;DHT22;32071;49.036;9.344;2022-12-18T11:04:23;-2.30;99.90
46364;DHT22;32071;49.036;9.344;2022-12-18T11:07:15;-2.20;99.90
46364;DHT22;32071;49.036;9.344;2022-12-18T11:09:41;-2.10;99.90
46364;DHT22;32071;49.036;9.344;2022-12-18T11:12:18;-2.00;99.90
46364;DHT22;32071;49.036;9.344;2022-12-18T11:14:54;-1.90;99.90
46364;DHT22;32071;49.036;9.344;2022-12-18T11:17:35;-1.90;99.90
46364;DHT22;32071;49.036;9.344;2022-12-18T11:20:06;-1.80;99.90
46364;DHT22;32071;49.036;9.344;2022-12-18T11:22:35;-1.60;99.90
46364;DHT22;32071;49.036;9.344;2022-12-18T11:25:16;-1.60;99.90
46364;DHT22;32071;49.036;9.344;2022-12-18T11:27:49;-1.40;99.90
46364;DHT22;32071;49.036;9.344;2022-12-18T11:30:32;-1.30;99.90
46364;DHT22;32071;49.036;9.344;2022-12-18T11:33:19;-1.30;99.90
46364;DHT22;32071;49.036;9.344;2022-12-18T11:35:55;-1.30;99.90
46364;DHT22;32071;49.036;9.344;2022-12-18T11:38:34;-1.30;99.90
46364;DHT22;32071;49.036;9.344;2022-12-18T11:41:05;-1.20;99.90
46364;DHT22;32071;49.036;9.344;2022-12-18T11:43:41;-1.20;99.90
46364;DHT22;32071;49.036;9.344;2022-12-18T11:46:14;-1.20;99.90
46364;DHT22;32071;49.036;9.344;2022-12-18T11:49:01;-1.20;99.90
46364;DHT22;32071;49.036;9.344;2022-12-18T11:51:35;-1.20;99.90
46364;DHT22;32071;49.036;9.344;2022-12-18T11:54:14;-1.10;99.90
46364;DHT22;32071;49.036;9.344;2022-12-18T11:56:50;-1.20;99.90
46364;DHT22;32071;49.036;9.344;2022-12-18T12:01:50;-1.10;99.90
46364;DHT22;32071;49.036;9.344;2022-12-18T12:07:17;-0.90;99.90
46364;DHT22;32071;49.036;9.344;2022-12-18T12:13:06;-0.80;99.90
46364;DHT22;32071;49.036;9.344;2022-12-18T12:21:38;-0.70;99.90
46364;DHT22;32071;49.036;9.344;2022-12-18T12:24:10;-0.70;99.90
46364;DHT22;32071;49.036;9.344;2022-12-18T12:29:33;-0.50;99.90
46364;DHT22;32071;49.036;9.344;2022-12-18T12:34:49;-0.50;99.90
46364;DHT22;32071;49.036;9.344;2022-12-18T12:37:40;-0.50;99.90
46364;DHT22;32071;49.036;9.344;2022-12-18T12:40:13;-0.50;99.90
46364;DHT22;32071;49.036;9.344;2022-12-18T12:42:46;-0.50;99.90
46364;DHT22;32071;49.036;9.344;2022-12-18T12:46:26;-0.40;99.90
46364;DHT22;32071;49.036;9.344;2022-12-18T12:48:52;-0.40;99.90
46364;DHT22;32071;49.036;9.344;2022-12-18T12:51:28;-0.30;99.90
46364;DHT22;32071;49.036;9.344;2022-12-18T12:53:56;-0.20;99.90
46364;DHT22;32071;49.036;9.344;2022-12-18T12:56:26;-0.30;99.90
46364;DHT22;32071;49.036;9.344;2022-12-18T13:02:06;-0.20;99.90
46364;DHT22;32071;49.036;9.344;2022-12-18T13:07:39;-0.20;99.90
46364;DHT22;32071;49.036;9.344;2022-12-18T13:13:08;-0.10;99.90
46364;DHT22;32071;49.036;9.344;2022-12-18T13:15:50;0.00;99.90
46364;DHT22;32071;49.036;9.344;2022-12-18T13:18:28;0.00;99.90
46364;DHT22;32071;49.036;9.344;2022-12-18T13:23:27;0.10;99.90
46364;DHT22;32071;49.036;9.344;2022-12-18T13:25:57;0.00;99.90
46364;DHT22;32071;49.036;9.344;2022-12-18T13:34:25;-0.10;99.90
46364;DHT22;32071;49.036;9.344;2022-12-18T13:36:53;0.00;99.90
46364;DHT22;32071;49.036;9.344;2022-12-18T13:41:50;0.00;99.90
46364;DHT22;32071;49.036;9.344;2022-12-18T13:44:40;0.10;99.90
46364;DHT22;32071;49.036;9.344;2022-12-18T13:47:35;0.00;99.90
46364;DHT22;32071;49.036;9.344;2022-12-18T13:50:22;-0.10;99.90
46364;DHT22;32071;49.036;9.344;2022-12-18T13:52:49;0.00;99.90
46364;DHT22;32071;49.036;9.344;2022-12-18T13:55:18;0.00;99.90
46364;DHT22;32071;49.036;9.344;2022-12-18T13:57:44;0.00;99.90
46364;DHT22;32071;49.036;9.344;2022-12-18T14:00:29;-0.10;99.90
46364;DHT22;32071;49.036;9.344;2022-12-18T14:02:56;-0.20;99.90
46364;DHT22;32071;49.036;9.344;2022-12-18T14:05:27;-0.20;99.90
46364;DHT22;32071;49.036;9.344;2022-12-18T14:07:54;-0.30;99.90
46364;DHT22;32071;49.036;9.344;2022-12-18T14:10:21;-0.30;99.90
46364;DHT22;32071;49.036;9.344;2022-12-18T14:12:48;-0.30;99.90
46364;DHT22;32071;49.036;9.344;2022-12-18T14:15:41;-0.30;99.90
46364;DHT22;32071;49.036;9.344;2022-12-18T14:20:50;-0.30;99.90
46364;DHT22;32071;49.036;9.344;2022-12-18T14:23:32;-0.40;99.90
46364;DHT22;32071;49.036;9.344;2022-12-18T14:25:59;-0.40;99.90
46364;DHT22;32071;49.036;9.344;2022-12-18T14:28:25;-0.50;99.90
46364;DHT22;32071;49.036;9.344;2022-12-18T14:30:52;-0.50;99.90
46364;DHT22;32071;49.036;9.344;2022-12-18T14:33:24;-0.60;99.90
46364;DHT22;32071;49.036;9.344;2022-12-18T14:35:58;-0.70;99.90
46364;DHT22;32071;49.036;9.344;2022-12-18T14:38:38;-0.70;99.90
46364;DHT22;32071;49.036;9.344;2022-12-18T14:43:36;-0.90;99.90
46364;DHT22;32071;49.036;9.344;2022-12-18T14:46:04;-1.00;99.90
46364;DHT22;32071;49.036;9.344;2022-12-18T14:51:23;-1.20;99.90
46364;DHT22;32071;49.036;9.344;2022-12-18T14:56:34;-1.30;99.90
46364;DHT22;32071;49.036;9.344;2022-12-18T14:59:05;-1.40;99.90
46364;DHT22;32071;49.036;9.344;2022-12-18T15:01:34;-1.50;99.90
46364;DHT22;32071;49.036;9.344;2022-12-18T15:04:02;-1.50;99.90
46364;DHT22;32071;49.036;9.344;2022-12-18T15:06:31;-1.60;99.90
46364;DHT22;32071;49.036;9.344;2022-12-18T15:08:59;-1.70;99.90
46364;DHT22;32071;49.036;9.344;2022-12-18T15:11:33;-1.70;99.90
46364;DHT22;32071;49.036;9.344;2022-12-18T15:14:03;-1.80;99.90
46364;DHT22;32071;49.036;9.344;2022-12-18T15:16:53;-1.80;99.90
46364;DHT22;32071;49.036;9.344;2022-12-18T15:19:21;-1.90;99.90
46364;DHT22;32071;49.036;9.344;2022-12-18T15:21:47;-1.90;99.90
46364;DHT22;32071;49.036;9.344;2022-12-18T15:24:26;-2.00;99.90
46364;DHT22;32071;49.036;9.344;2022-12-18T15:26:52;-2.10;99.90
46364;DHT22;32071;49.036;9.344;2022-12-18T15:29:22;-2.10;99.90
46364;DHT22;32071;49.036;9.344;2022-12-18T15:32:02;-2.20;99.90
46364;DHT22;32071;49.036;9.344;2022-12-18T15:34:29;-2.20;99.90
46364;DHT22;32071;49.036;9.344;2022-12-18T15:36:55;-2.30;99.90
46364;DHT22;32071;49.036;9.344;2022-12-18T15:39:21;-2.40;99.90
46364;DHT22;32071;49.036;9.344;2022-12-18T15:41:46;-2.50;99.90
46364;DHT22;32071;49.036;9.344;2022-12-18T15:44:31;-2.50;99.90
46364;DHT22;32071;49.036;9.344;2022-12-18T15:46:57;-2.60;99.90
46364;DHT22;32071;49.036;9.344;2022-12-18T15:49:23;-2.60;99.90
46364;DHT22;32071;49.036;9.344;2022-12-18T15:51:52;-2.70;99.90
46364;DHT22;32071;49.036;9.344;2022-12-18T15:54:18;-2.70;99.90
46364;DHT22;32071;49.036;9.344;2022-12-18T15:57:04;-2.80;99.90
46364;DHT22;32071;49.036;9.344;2022-12-18T15:59:48;-2.90;99.90
46364;DHT22;32071;49.036;9.344;2022-12-18T16:02:17;-2.90;99.90
46364;DHT22;32071;49.036;9.344;2022-12-18T16:04:43;-3.00;99.90
46364;DHT22;32071;49.036;9.344;2022-12-18T16:07:11;-3.10;99.90
46364;DHT22;32071;49.036;9.344;2022-12-18T16:09:37;-3.20;99.90
46364;DHT22;32071;49.036;9.344;2022-12-18T16:12:04;-3.40;99.90
46364;DHT22;32071;49.036;9.344;2022-12-18T16:14:32;-3.40;99.90
46364;DHT22;32071;49.036;9.344;2022-12-18T16:17:00;-3.50;99.90
46364;DHT22;32071;49.036;9.344;2022-12-18T16:19:26;-3.60;99.90
46364;DHT22;32071;49.036;9.344;2022-12-18T16:21:54;-3.70;99.90
46364;DHT22;32071;49.036;9.344;2022-12-18T16:24:28;-3.70;99.90
46364;DHT22;32071;49.036;9.344;2022-12-18T16:26:57;-3.80;99.90
46364;DHT22;32071;49.036;9.344;2022-12-18T16:29:24;-3.90;99.90
46364;DHT22;32071;49.036;9.344;2022-12-18T16:31:53;-4.00;99.90
46364;DHT22;32071;49.036;9.344;2022-12-18T16:34:22;-4.10;99.90
46364;DHT22;32071;49.036;9.344;2022-12-18T16:36:48;-4.10;99.90
46364;DHT22;32071;49.036;9.344;2022-12-18T16:39:15;-4.20;99.90
46364;DHT22;32071;49.036;9.344;2022-12-18T16:41:40;-4.20;99.90
46364;DHT22;32071;49.036;9.344;2022-12-18T16:44:06;-4.20;99.90
46364;DHT22;32071;49.036;9.344;2022-12-18T16:46:32;-4.20;99.90
46364;DHT22;32071;49.036;9.344;2022-12-18T16:48:59;-4.20;99.90
46364;DHT22;32071;49.036;9.344;2022-12-18T16:51:26;-4.20;99.90
46364;DHT22;32071;49.036;9.344;2022-12-18T16:53:52;-4.20;99.90
46364;DHT22;32071;49.036;9.344;2022-12-18T16:56:18;-4.20;99.90
46364;DHT22;32071;49.036;9.344;2022-12-18T16:58:52;-4.20;99.90
46364;DHT22;32071;49.036;9.344;2022-12-18T17:01:18;-4.30;99.90
46364;DHT22;32071;49.036;9.344;2022-12-18T17:03:50;-4.30;99.90
46364;DHT22;32071;49.036;9.344;2022-12-18T17:06:16;-4.20;99.90
46364;DHT22;32071;49.036;9.344;2022-12-18T17:08:41;-4.30;99.90
46364;DHT22;32071;49.036;9.344;2022-12-18T17:11:07;-4.30;99.90
46364;DHT22;32071;49.036;9.344;2022-12-18T17:13:33;-4.30;99.90
46364;DHT22;32071;49.036;9.344;2022-12-18T17:16:06;-4.30;99.90